sensor_id;sensor_type;location;lat;lon;timestamp;temperature;humidity
11067;DHT22;29763;50.904;5.530;2023-04-03T00:00:43;1.50;99.90
11067;DHT22;29763;50.904;5.530;2023-04-03T00:03:12;1.40;99.90
11067;DHT22;29763;50.904;5.530;2023-04-03T00:05:38;1.40;99.90
11067;DHT22;29763;50.904;5.530;2023-04-03T00:08:03;1.30;99.90
11067;DHT22;29763;50.904;5.530;2023-04-03T00:10:33;1.30;99.90
11067;DHT22;29763;50.904;5.530;2023-04-03T00:12:59;1.30;99.90
11067;DHT22;29763;50.904;5.530;2023-04-03T00:15:25;1.30;99.90
11067;DHT22;29763;50.904;5.530;2023-04-03T00:17:51;1.30;99.90
11067;DHT22;29763;50.904;5.530;2023-04-03T00:20:17;1.20;99.90
11067;DHT22;29763;50.904;5.530;2023-04-03T00:22:43;1.20;99.90
11067;DHT22;29763;50.904;5.530;2023-04-03T00:25:09;1.10;99.90
11067;DHT22;29763;50.904;5.530;2023-04-03T00:27:38;1.10;99.90
11067;DHT22;29763;50.904;5.530;2023-04-03T00:30:07;1.10;99.90
11067;DHT22;29763;50.904;5.530;2023-04-03T00:32:33;1.10;99.90
11067;DHT22;29763;50.904;5.530;2023-04-03T00:35:00;1.10;99.90
11067;DHT22;29763;50.904;5.530;2023-04-03T00:37:26;1.00;99.90
11067;DHT22;29763;50.904;5.530;2023-04-03T00:39:52;1.00;99.90
11067;DHT22;29763;50.904;5.530;2023-04-03T00:42:18;0.90;99.90
11067;DHT22;29763;50.904;5.530;2023-04-03T00:47:12;1.00;99.90
11067;DHT22;29763;50.904;5.530;2023-04-03T00:49:40;0.90;99.90
11067;DHT22;29763;50.904;5.530;2023-04-03T00:52:15;0.90;99.90
11067;DHT22;29763;50.904;5.530;2023-04-03T00:54:42;0.80;99.90
11067;DHT22;29763;50.904;5.530;2023-04-03T00:57:10;0.80;99.90
11067;DHT22;29763;50.904;5.530;2023-04-03T00:59:44;0.80;99.90
11067;DHT22;29763;50.904;5.530;2023-04-03T01:02:12;0.80;99.90
11067;DHT22;29763;50.904;5.530;2023-04-03T01:04:43;0.70;99.90
11067;DHT22;29763;50.904;5.530;2023-04-03T01:07:12;0.70;99.90
11067;DHT22;29763;50.904;5.530;2023-04-03T01:09:40;0.70;99.90
11067;DHT22;29763;50.904;5.530;2023-04-03T01:12:34;0.60;99.90
11067;DHT22;29763;50.904;5.530;2023-04-03T01:15:06;0.60;99.90
11067;DHT22;29763;50.904;5.530;2023-04-03T01:17:36;0.60;99.90
11067;DHT22;29763;50.904;5.530;2023-04-03T01:20:21;0.50;99.90
11067;DHT22;29763;50.904;5.530;2023-04-03T01:25:46;0.40;99.90
11067;DHT22;29763;50.904;5.530;2023-04-03T01:28:21;0.40;99.90
11067;DHT22;29763;50.904;5.530;2023-04-03T01:31:02;0.40;99.90
11067;DHT22;29763;50.904;5.530;2023-04-03T01:33:31;0.40;99.90
11067;DHT22;29763;50.904;5.530;2023-04-03T01:35:57;0.30;99.90
11067;DHT22;29763;50.904;5.530;2023-04-03T01:38:23;0.40;99.90
11067;DHT22;29763;50.904;5.530;2023-04-03T01:40:49;0.30;99.90
11067;DHT22;29763;50.904;5.530;2023-04-03T01:43:15;0.30;99.90
11067;DHT22;29763;50.904;5.530;2023-04-03T01:45:40;0.20;99.90
11067;DHT22;29763;50.904;5.530;2023-04-03T01:48:06;0.20;99.90
11067;DHT22;29763;50.904;5.530;2023-04-03T01:50:32;0.20;99.90
11067;DHT22;29763;50.904;5.530;2023-04-03T01:52:58;0.20;99.90
11067;DHT22;29763;50.904;5.530;2023-04-03T01:55:24;0.20;99.90
11067;DHT22;29763;50.904;5.530;2023-04-03T01:57:49;0.20;99.90
11067;DHT22;29763;50.904;5.530;2023-04-03T02:00:15;0.20;99.90
11067;DHT22;29763;50.904;5.530;2023-04-03T02:02:42;0.20;99.90
11067;DHT22;29763;50.904;5.530;2023-04-03T02:05:08;0.20;99.90
11067;DHT22;29763;50.904;5.530;2023-04-03T02:07:33;0.20;99.90
11067;DHT22;29763;50.904;5.530;2023-04-03T02:09:59;0.10;99.90
11067;DHT22;29763;50.904;5.530;2023-04-03T02:12:25;0.10;99.90
11067;DHT22;29763;50.904;5.530;2023-04-03T02:14:51;0.00;99.90
11067;DHT22;29763;50.904;5.530;2023-04-03T02:17:17;0.00;99.90
11067;DHT22;29763;50.904;5.530;2023-04-03T02:19:43;0.00;99.90
11067;DHT22;29763;50.904;5.530;2023-04-03T02:22:08;0.00;99.90
11067;DHT22;29763;50.904;5.530;2023-04-03T02:24:34;0.00;99.90
11067;DHT22;29763;50.904;5.530;2023-04-03T02:27:00;-0.10;99.90
11067;DHT22;29763;50.904;5.530;2023-04-03T02:29:26;0.00;99.90
11067;DHT22;29763;50.904;5.530;2023-04-03T02:31:51;-0.10;99.90
11067;DHT22;29763;50.904;5.530;2023-04-03T02:34:17;-0.20;99.90
11067;DHT22;29763;50.904;5.530;2023-04-03T02:36:43;-0.20;99.90
11067;DHT22;29763;50.904;5.530;2023-04-03T02:39:09;-0.20;99.90
11067;DHT22;29763;50.904;5.530;2023-04-03T02:41:35;-0.20;99.90
11067;DHT22;29763;50.904;5.530;2023-04-03T02:44:02;-0.20;99.90
11067;DHT22;29763;50.904;5.530;2023-04-03T02:46:28;-0.20;99.90
11067;DHT22;29763;50.904;5.530;2023-04-03T02:48:54;-0.30;99.90
11067;DHT22;29763;50.904;5.530;2023-04-03T02:51:20;-0.30;99.90
11067;DHT22;29763;50.904;5.530;2023-04-03T02:53:47;-0.30;99.90
11067;DHT22;29763;50.904;5.530;2023-04-03T02:56:12;-0.40;99.90
11067;DHT22;29763;50.904;5.530;2023-04-03T02:58:38;-0.40;99.90
11067;DHT22;29763;50.904;5.530;2023-04-03T03:01:04;-0.40;99.90
11067;DHT22;29763;50.904;5.530;2023-04-03T03:03:30;-0.40;99.90
11067;DHT22;29763;50.904;5.530;2023-04-03T03:06:10;-0.40;99.90
11067;DHT22;29763;50.904;5.530;2023-04-03T03:08:36;-0.40;99.90
11067;DHT22;29763;50.904;5.530;2023-04-03T03:11:03;-0.40;99.90
11067;DHT22;29763;50.904;5.530;2023-04-03T03:13:29;-0.50;99.90
11067;DHT22;29763;50.904;5.530;2023-04-03T03:15:55;-0.50;99.90
11067;DHT22;29763;50.904;5.530;2023-04-03T03:18:23;-0.50;99.90
11067;DHT22;29763;50.904;5.530;2023-04-03T03:20:58;-0.50;99.90
11067;DHT22;29763;50.904;5.530;2023-04-03T03:23:26;-0.60;99.90
11067;DHT22;29763;50.904;5.530;2023-04-03T03:25:56;-0.60;99.90
11067;DHT22;29763;50.904;5.530;2023-04-03T03:28:24;-0.60;99.90
11067;DHT22;29763;50.904;5.530;2023-04-03T03:30:50;-0.70;99.90
11067;DHT22;29763;50.904;5.530;2023-04-03T03:33:16;-0.70;99.90
11067;DHT22;29763;50.904;5.530;2023-04-03T03:35:43;-0.70;99.90
11067;DHT22;29763;50.904;5.530;2023-04-03T03:38:09;-0.70;99.90
11067;DHT22;29763;50.904;5.530;2023-04-03T03:40:35;-0.70;99.90
11067;DHT22;29763;50.904;5.530;2023-04-03T03:43:00;-0.70;99.90
11067;DHT22;29763;50.904;5.530;2023-04-03T03:45:26;-0.70;99.90
11067;DHT22;29763;50.904;5.530;2023-04-03T03:47:52;-0.60;99.90
11067;DHT22;29763;50.904;5.530;2023-04-03T03:50:18;-0.50;99.90
11067;DHT22;29763;50.904;5.530;2023-04-03T03:52:44;-0.50;99.90
11067;DHT22;29763;50.904;5.530;2023-04-03T03:55:10;-0.40;99.90
11067;DHT22;29763;50.904;5.530;2023-04-03T03:57:36;-0.40;99.90
11067;DHT22;29763;50.904;5.530;2023-04-03T04:00:02;-0.40;99.90
11067;DHT22;29763;50.904;5.530;2023-04-03T04:02:28;-0.40;99.90
11067;DHT22;29763;50.904;5.530;2023-04-03T04:04:55;-0.40;99.90
11067;DHT22;29763;50.904;5.530;2023-04-03T04:07:21;-0.50;99.90
11067;DHT22;29763;50.904;5.530;2023-04-03T04:09:47;-0.50;99.90
11067;DHT22;29763;50.904;5.530;2023-04-03T04:12:13;-0.60;99.90
11067;DHT22;29763;50.904;5.530;2023-04-03T04:14:39;-0.60;99.90
11067;DHT22;29763;50.904;5.530;2023-04-03T04:17:05;-0.60;99.90
11067;DHT22;29763;50.904;5.530;2023-04-03T04:19:31;-0.60;99.90
11067;DHT22;29763;50.904;5.530;2023-04-03T04:22:00;-0.50;99.90
11067;DHT22;29763;50.904;5.530;2023-04-03T04:24:26;-0.40;99.90
11067;DHT22;29763;50.904;5.530;2023-04-03T04:26:51;-0.30;99.90
11067;DHT22;29763;50.904;5.530;2023-04-03T04:29:17;-0.20;99.90
11067;DHT22;29763;50.904;5.530;2023-04-03T04:31:43;-0.30;99.90
11067;DHT22;29763;50.904;5.530;2023-04-03T04:34:08;-0.40;99.90
11067;DHT22;29763;50.904;5.530;2023-04-03T04:36:34;-0.50;99.90
11067;DHT22;29763;50.904;5.530;2023-04-03T04:39:00;-0.60;99.90
11067;DHT22;29763;50.904;5.530;2023-04-03T04:41:26;-0.60;99.90
11067;DHT22;29763;50.904;5.530;2023-04-03T04:43:52;-0.60;99.90
11067;DHT22;29763;50.904;5.530;2023-04-03T04:46:18;-0.70;99.90
11067;DHT22;29763;50.904;5.530;2023-04-03T04:48:44;-0.70;99.90
11067;DHT22;29763;50.904;5.530;2023-04-03T04:51:11;-0.70;99.90
11067;DHT22;29763;50.904;5.530;2023-04-03T04:53:37;-0.70;99.90
11067;DHT22;29763;50.904;5.530;2023-04-03T04:56:03;-0.70;99.90
11067;DHT22;29763;50.904;5.530;2023-04-03T04:58:29;-0.60;99.90
11067;DHT22;29763;50.904;5.530;2023-04-03T05:01:05;-0.60;99.90
11067;DHT22;29763;50.904;5.530;2023-04-03T05:03:32;-0.60;99.90
11067;DHT22;29763;50.904;5.530;2023-04-03T05:05:58;-0.60;99.90
11067;DHT22;29763;50.904;5.530;2023-04-03T05:08:24;-0.70;99.90
11067;DHT22;29763;50.904;5.530;2023-04-03T05:10:50;-0.70;99.90
11067;DHT22;29763;50.904;5.530;2023-04-03T05:13:16;-0.70;99.90
11067;DHT22;29763;50.904;5.530;2023-04-03T05:15:42;-0.70;99.90
11067;DHT22;29763;50.904;5.530;2023-04-03T05:18:08;-0.70;99.90
11067;DHT22;29763;50.904;5.530;2023-04-03T05:20:35;-0.70;99.90
11067;DHT22;29763;50.904;5.530;2023-04-03T05:23:01;-0.80;99.90
11067;DHT22;29763;50.904;5.530;2023-04-03T05:25:27;-0.80;99.90
11067;DHT22;29763;50.904;5.530;2023-04-03T05:27:53;-0.80;99.90
11067;DHT22;29763;50.904;5.530;2023-04-03T05:30:19;-0.90;99.90
11067;DHT22;29763;50.904;5.530;2023-04-03T05:32:45;-0.80;99.90
11067;DHT22;29763;50.904;5.530;2023-04-03T05:35:10;-0.70;99.90
11067;DHT22;29763;50.904;5.530;2023-04-03T05:37:36;-0.60;99.90
11067;DHT22;29763;50.904;5.530;2023-04-03T05:40:04;-0.50;99.90
11067;DHT22;29763;50.904;5.530;2023-04-03T05:42:30;-0.40;99.90
11067;DHT22;29763;50.904;5.530;2023-04-03T05:44:56;-0.30;99.90
11067;DHT22;29763;50.904;5.530;2023-04-03T05:47:21;-0.20;99.90
11067;DHT22;29763;50.904;5.530;2023-04-03T05:49:47;0.00;99.90
11067;DHT22;29763;50.904;5.530;2023-04-03T05:52:28;0.10;99.90
11067;DHT22;29763;50.904;5.530;2023-04-03T05:54:54;0.20;99.90
11067;DHT22;29763;50.904;5.530;2023-04-03T05:57:20;0.40;99.90
11067;DHT22;29763;50.904;5.530;2023-04-03T05:59:46;0.50;99.90
11067;DHT22;29763;50.904;5.530;2023-04-03T06:02:18;0.60;99.90
11067;DHT22;29763;50.904;5.530;2023-04-03T06:04:44;0.80;99.90
11067;DHT22;29763;50.904;5.530;2023-04-03T06:07:13;0.90;99.90
11067;DHT22;29763;50.904;5.530;2023-04-03T06:09:40;1.10;99.90
11067;DHT22;29763;50.904;5.530;2023-04-03T06:12:06;1.30;99.90
11067;DHT22;29763;50.904;5.530;2023-04-03T06:14:32;1.50;99.90
11067;DHT22;29763;50.904;5.530;2023-04-03T06:16:58;1.60;99.90
11067;DHT22;29763;50.904;5.530;2023-04-03T06:19:25;1.80;99.90
11067;DHT22;29763;50.904;5.530;2023-04-03T06:21:51;1.90;99.90
11067;DHT22;29763;50.904;5.530;2023-04-03T06:24:17;2.20;99.90
11067;DHT22;29763;50.904;5.530;2023-04-03T06:26:43;2.20;99.90
11067;DHT22;29763;50.904;5.530;2023-04-03T06:29:09;2.30;99.90
11067;DHT22;29763;50.904;5.530;2023-04-03T06:31:35;2.50;99.90
11067;DHT22;29763;50.904;5.530;2023-04-03T06:34:02;2.60;99.90
11067;DHT22;29763;50.904;5.530;2023-04-03T06:36:29;2.80;99.90
11067;DHT22;29763;50.904;5.530;2023-04-03T06:38:55;2.90;99.90
11067;DHT22;29763;50.904;5.530;2023-04-03T06:41:21;3.00;99.90
11067;DHT22;29763;50.904;5.530;2023-04-03T06:43:47;3.20;99.90
11067;DHT22;29763;50.904;5.530;2023-04-03T06:46:18;3.50;99.90
11067;DHT22;29763;50.904;5.530;2023-04-03T06:48:44;3.60;99.90
11067;DHT22;29763;50.904;5.530;2023-04-03T06:51:30;3.90;99.90
11067;DHT22;29763;50.904;5.530;2023-04-03T06:53:58;4.10;99.90
11067;DHT22;29763;50.904;5.530;2023-04-03T06:56:25;4.20;99.90
11067;DHT22;29763;50.904;5.530;2023-04-03T06:58:52;4.20;99.90
11067;DHT22;29763;50.904;5.530;2023-04-03T07:01:20;4.40;99.90
11067;DHT22;29763;50.904;5.530;2023-04-03T07:03:47;4.40;99.90
11067;DHT22;29763;50.904;5.530;2023-04-03T07:06:15;4.70;99.90
11067;DHT22;29763;50.904;5.530;2023-04-03T07:08:41;4.70;99.90
11067;DHT22;29763;50.904;5.530;2023-04-03T07:11:08;4.70;99.90
11067;DHT22;29763;50.904;5.530;2023-04-03T07:13:35;4.90;99.90
11067;DHT22;29763;50.904;5.530;2023-04-03T07:16:02;5.00;99.90
11067;DHT22;29763;50.904;5.530;2023-04-03T07:18:29;5.10;99.90
11067;DHT22;29763;50.904;5.530;2023-04-03T07:20:55;5.30;99.90
11067;DHT22;29763;50.904;5.530;2023-04-03T07:23:21;5.40;99.90
11067;DHT22;29763;50.904;5.530;2023-04-03T07:25:48;5.70;99.90
11067;DHT22;29763;50.904;5.530;2023-04-03T07:28:15;6.10;99.90
11067;DHT22;29763;50.904;5.530;2023-04-03T07:30:52;6.10;99.90
11067;DHT22;29763;50.904;5.530;2023-04-03T07:33:19;6.10;99.90
11067;DHT22;29763;50.904;5.530;2023-04-03T07:35:46;6.00;99.90
11067;DHT22;29763;50.904;5.530;2023-04-03T07:38:12;6.30;99.90
11067;DHT22;29763;50.904;5.530;2023-04-03T07:40:44;6.30;99.90
11067;DHT22;29763;50.904;5.530;2023-04-03T07:43:10;6.50;99.90
11067;DHT22;29763;50.904;5.530;2023-04-03T07:45:37;6.60;99.90
11067;DHT22;29763;50.904;5.530;2023-04-03T07:48:03;7.10;99.90
11067;DHT22;29763;50.904;5.530;2023-04-03T07:50:29;7.20;99.90
11067;DHT22;29763;50.904;5.530;2023-04-03T07:52:56;7.20;99.90
11067;DHT22;29763;50.904;5.530;2023-04-03T07:55:23;7.30;99.90
11067;DHT22;29763;50.904;5.530;2023-04-03T07:57:49;7.30;99.90
11067;DHT22;29763;50.904;5.530;2023-04-03T08:00:15;7.60;99.90
11067;DHT22;29763;50.904;5.530;2023-04-03T08:02:43;7.90;99.90
11067;DHT22;29763;50.904;5.530;2023-04-03T08:05:10;7.80;99.90
11067;DHT22;29763;50.904;5.530;2023-04-03T08:07:37;7.90;99.90
11067;DHT22;29763;50.904;5.530;2023-04-03T08:10:04;8.30;99.90
11067;DHT22;29763;50.904;5.530;2023-04-03T08:12:30;8.70;99.90
11067;DHT22;29763;50.904;5.530;2023-04-03T08:14:59;8.70;99.90
11067;DHT22;29763;50.904;5.530;2023-04-03T08:17:26;8.90;99.90
11067;DHT22;29763;50.904;5.530;2023-04-03T08:19:52;8.90;99.90
11067;DHT22;29763;50.904;5.530;2023-04-03T08:22:17;8.90;99.90
11067;DHT22;29763;50.904;5.530;2023-04-03T08:24:43;8.90;99.90
11067;DHT22;29763;50.904;5.530;2023-04-03T08:27:09;8.90;99.90
11067;DHT22;29763;50.904;5.530;2023-04-03T08:29:35;8.90;99.90
11067;DHT22;29763;50.904;5.530;2023-04-03T08:32:04;9.10;99.90
11067;DHT22;29763;50.904;5.530;2023-04-03T08:34:29;9.20;99.90
11067;DHT22;29763;50.904;5.530;2023-04-03T08:36:56;9.30;99.90
11067;DHT22;29763;50.904;5.530;2023-04-03T08:39:22;9.50;99.90
11067;DHT22;29763;50.904;5.530;2023-04-03T08:41:47;9.70;99.90
11067;DHT22;29763;50.904;5.530;2023-04-03T08:49:42;10.00;99.90
11067;DHT22;29763;50.904;5.530;2023-04-03T08:52:17;10.40;99.90
11067;DHT22;29763;50.904;5.530;2023-04-03T08:54:55;10.80;99.90
11067;DHT22;29763;50.904;5.530;2023-04-03T08:57:31;10.60;99.90
11067;DHT22;29763;50.904;5.530;2023-04-03T09:02:53;10.70;99.90
11067;DHT22;29763;50.904;5.530;2023-04-03T09:07:55;11.40;99.90
11067;DHT22;29763;50.904;5.530;2023-04-03T09:10:28;10.70;99.90
11067;DHT22;29763;50.904;5.530;2023-04-03T09:13:09;11.00;99.90
11067;DHT22;29763;50.904;5.530;2023-04-03T09:15:36;11.00;99.90
11067;DHT22;29763;50.904;5.530;2023-04-03T09:18:04;11.10;99.90
11067;DHT22;29763;50.904;5.530;2023-04-03T09:21:12;11.00;99.90
11067;DHT22;29763;50.904;5.530;2023-04-03T09:26:16;10.70;99.90
11067;DHT22;29763;50.904;5.530;2023-04-03T09:28:43;10.70;99.90
11067;DHT22;29763;50.904;5.530;2023-04-03T09:33:45;10.60;99.90
11067;DHT22;29763;50.904;5.530;2023-04-03T09:36:12;10.40;99.90
11067;DHT22;29763;50.904;5.530;2023-04-03T09:38:37;10.60;99.90
11067;DHT22;29763;50.904;5.530;2023-04-03T09:41:13;10.70;99.90
11067;DHT22;29763;50.904;5.530;2023-04-03T09:43:52;11.20;99.90
11067;DHT22;29763;50.904;5.530;2023-04-03T09:49:11;11.10;99.90
11067;DHT22;29763;50.904;5.530;2023-04-03T09:51:37;11.60;99.90
11067;DHT22;29763;50.904;5.530;2023-04-03T09:54:32;11.30;99.90
11067;DHT22;29763;50.904;5.530;2023-04-03T09:57:08;11.70;99.90
11067;DHT22;29763;50.904;5.530;2023-04-03T09:59:43;12.00;99.90
11067;DHT22;29763;50.904;5.530;2023-04-03T10:04:47;12.40;99.90
11067;DHT22;29763;50.904;5.530;2023-04-03T10:07:34;12.00;98.70
11067;DHT22;29763;50.904;5.530;2023-04-03T10:10:20;11.90;99.90
11067;DHT22;29763;50.904;5.530;2023-04-03T10:12:48;12.20;99.90
11067;DHT22;29763;50.904;5.530;2023-04-03T10:15:16;11.90;99.00
11067;DHT22;29763;50.904;5.530;2023-04-03T10:17:57;11.50;99.60
11067;DHT22;29763;50.904;5.530;2023-04-03T10:20:37;11.20;98.40
11067;DHT22;29763;50.904;5.530;2023-04-03T10:26:37;11.60;98.50
11067;DHT22;29763;50.904;5.530;2023-04-03T10:29:36;11.80;98.80
11067;DHT22;29763;50.904;5.530;2023-04-03T10:34:53;11.60;97.40
11067;DHT22;29763;50.904;5.530;2023-04-03T10:37:27;10.90;95.90
11067;DHT22;29763;50.904;5.530;2023-04-03T10:40:28;11.00;96.70
11067;DHT22;29763;50.904;5.530;2023-04-03T10:43:15;11.30;96.30
11067;DHT22;29763;50.904;5.530;2023-04-03T10:48:47;11.70;95.20
11067;DHT22;29763;50.904;5.530;2023-04-03T10:59:07;11.40;92.60
11067;DHT22;29763;50.904;5.530;2023-04-03T11:01:37;11.70;94.90
11067;DHT22;29763;50.904;5.530;2023-04-03T11:04:06;11.60;94.80
11067;DHT22;29763;50.904;5.530;2023-04-03T11:06:53;12.00;98.40
11067;DHT22;29763;50.904;5.530;2023-04-03T11:09:27;12.30;95.80
11067;DHT22;29763;50.904;5.530;2023-04-03T11:12:00;13.00;96.10
11067;DHT22;29763;50.904;5.530;2023-04-03T11:14:30;13.10;95.80
11067;DHT22;29763;50.904;5.530;2023-04-03T11:17:15;12.90;95.20
11067;DHT22;29763;50.904;5.530;2023-04-03T11:25:40;13.30;94.70
11067;DHT22;29763;50.904;5.530;2023-04-03T11:28:13;12.80;93.60
11067;DHT22;29763;50.904;5.530;2023-04-03T11:36:08;13.00;92.70
11067;DHT22;29763;50.904;5.530;2023-04-03T11:38:37;12.50;93.00
11067;DHT22;29763;50.904;5.530;2023-04-03T11:41:07;12.40;93.80
11067;DHT22;29763;50.904;5.530;2023-04-03T11:43:40;12.30;93.00
11067;DHT22;29763;50.904;5.530;2023-04-03T11:46:07;12.40;92.50
11067;DHT22;29763;50.904;5.530;2023-04-03T11:48:42;12.50;92.40
11067;DHT22;29763;50.904;5.530;2023-04-03T11:53:42;12.00;92.00
11067;DHT22;29763;50.904;5.530;2023-04-03T12:01:50;12.50;92.90
11067;DHT22;29763;50.904;5.530;2023-04-03T12:04:19;12.90;93.40
11067;DHT22;29763;50.904;5.530;2023-04-03T12:09:31;12.40;92.50
11067;DHT22;29763;50.904;5.530;2023-04-03T12:12:00;12.70;93.60
11067;DHT22;29763;50.904;5.530;2023-04-03T12:14:28;12.40;92.30
11067;DHT22;29763;50.904;5.530;2023-04-03T12:16:55;12.60;93.60
11067;DHT22;29763;50.904;5.530;2023-04-03T12:19:36;12.40;94.00
11067;DHT22;29763;50.904;5.530;2023-04-03T12:24:34;12.70;93.50
11067;DHT22;29763;50.904;5.530;2023-04-03T12:46:17;13.20;93.10
11067;DHT22;29763;50.904;5.530;2023-04-03T12:48:50;13.20;92.50
11067;DHT22;29763;50.904;5.530;2023-04-03T12:51:38;13.60;94.50
11067;DHT22;29763;50.904;5.530;2023-04-03T12:59:41;12.60;92.60
11067;DHT22;29763;50.904;5.530;2023-04-03T13:02:51;12.60;93.30
11067;DHT22;29763;50.904;5.530;2023-04-03T13:05:16;12.70;93.60
11067;DHT22;29763;50.904;5.530;2023-04-03T13:07:43;13.10;94.00
11067;DHT22;29763;50.904;5.530;2023-04-03T13:12:53;13.00;91.50
11067;DHT22;29763;50.904;5.530;2023-04-03T13:15:22;12.90;91.30
11067;DHT22;29763;50.904;5.530;2023-04-03T13:17:49;12.60;93.20
11067;DHT22;29763;50.904;5.530;2023-04-03T13:20:29;12.80;91.90
11067;DHT22;29763;50.904;5.530;2023-04-03T13:25:24;12.40;90.30
11067;DHT22;29763;50.904;5.530;2023-04-03T13:27:51;12.60;92.40
11067;DHT22;29763;50.904;5.530;2023-04-03T13:30:26;12.40;90.50
11067;DHT22;29763;50.904;5.530;2023-04-03T13:32:54;12.60;91.50
11067;DHT22;29763;50.904;5.530;2023-04-03T13:35:38;12.70;90.50
11067;DHT22;29763;50.904;5.530;2023-04-03T13:38:28;12.50;89.20
11067;DHT22;29763;50.904;5.530;2023-04-03T13:40:59;12.40;89.60
11067;DHT22;29763;50.904;5.530;2023-04-03T13:43:28;12.60;91.40
11067;DHT22;29763;50.904;5.530;2023-04-03T13:48:44;12.40;92.10
11067;DHT22;29763;50.904;5.530;2023-04-03T13:53:49;12.40;91.20
11067;DHT22;29763;50.904;5.530;2023-04-03T13:56:37;12.50;91.20
11067;DHT22;29763;50.904;5.530;2023-04-03T14:01:49;12.40;90.20
11067;DHT22;29763;50.904;5.530;2023-04-03T14:04:19;12.00;88.80
11067;DHT22;29763;50.904;5.530;2023-04-03T14:06:46;12.00;90.70
11067;DHT22;29763;50.904;5.530;2023-04-03T14:09:13;12.30;90.70
11067;DHT22;29763;50.904;5.530;2023-04-03T14:11:40;12.40;92.30
11067;DHT22;29763;50.904;5.530;2023-04-03T14:14:27;12.60;91.50
11067;DHT22;29763;50.904;5.530;2023-04-03T14:16:56;12.50;92.10
11067;DHT22;29763;50.904;5.530;2023-04-03T14:19:30;12.50;91.90
11067;DHT22;29763;50.904;5.530;2023-04-03T14:21:58;12.40;89.60
11067;DHT22;29763;50.904;5.530;2023-04-03T14:24:24;12.50;90.20
11067;DHT22;29763;50.904;5.530;2023-04-03T14:26:53;12.80;92.10
11067;DHT22;29763;50.904;5.530;2023-04-03T14:29:19;12.90;90.20
11067;DHT22;29763;50.904;5.530;2023-04-03T14:31:48;12.70;90.00
11067;DHT22;29763;50.904;5.530;2023-04-03T14:34:15;12.90;91.60
11067;DHT22;29763;50.904;5.530;2023-04-03T14:36:43;13.00;91.40
11067;DHT22;29763;50.904;5.530;2023-04-03T14:39:17;13.00;91.70
11067;DHT22;29763;50.904;5.530;2023-04-03T14:41:43;13.30;92.60
11067;DHT22;29763;50.904;5.530;2023-04-03T14:44:09;12.80;89.60
11067;DHT22;29763;50.904;5.530;2023-04-03T14:46:37;13.10;91.50
11067;DHT22;29763;50.904;5.530;2023-04-03T14:49:08;13.00;91.00
11067;DHT22;29763;50.904;5.530;2023-04-03T14:51:37;12.70;90.60
11067;DHT22;29763;50.904;5.530;2023-04-03T14:54:03;12.60;90.50
11067;DHT22;29763;50.904;5.530;2023-04-03T14:56:31;12.40;89.20
11067;DHT22;29763;50.904;5.530;2023-04-03T14:59:00;12.30;90.30
11067;DHT22;29763;50.904;5.530;2023-04-03T15:01:27;12.20;88.80
11067;DHT22;29763;50.904;5.530;2023-04-03T15:03:53;12.50;90.10
11067;DHT22;29763;50.904;5.530;2023-04-03T15:06:19;12.40;88.00
11067;DHT22;29763;50.904;5.530;2023-04-03T15:08:46;12.20;90.30
11067;DHT22;29763;50.904;5.530;2023-04-03T15:11:14;11.90;89.30
11067;DHT22;29763;50.904;5.530;2023-04-03T15:13:40;11.80;89.50
11067;DHT22;29763;50.904;5.530;2023-04-03T15:16:14;11.80;90.20
11067;DHT22;29763;50.904;5.530;2023-04-03T15:18:40;11.80;89.00
11067;DHT22;29763;50.904;5.530;2023-04-03T15:21:06;11.60;89.40
11067;DHT22;29763;50.904;5.530;2023-04-03T15:23:32;11.50;87.90
11067;DHT22;29763;50.904;5.530;2023-04-03T15:25:58;11.50;89.70
11067;DHT22;29763;50.904;5.530;2023-04-03T15:28:36;11.50;87.90
11067;DHT22;29763;50.904;5.530;2023-04-03T15:31:03;11.40;87.20
11067;DHT22;29763;50.904;5.530;2023-04-03T15:33:30;11.40;86.70
11067;DHT22;29763;50.904;5.530;2023-04-03T15:35:55;11.10;85.00
11067;DHT22;29763;50.904;5.530;2023-04-03T15:38:21;11.10;87.50
11067;DHT22;29763;50.904;5.530;2023-04-03T15:40:47;11.10;90.30
11067;DHT22;29763;50.904;5.530;2023-04-03T15:43:14;11.20;90.40
11067;DHT22;29763;50.904;5.530;2023-04-03T15:45:40;11.50;90.40
11067;DHT22;29763;50.904;5.530;2023-04-03T15:48:07;11.70;91.20
11067;DHT22;29763;50.904;5.530;2023-04-03T15:50:33;11.80;91.40
11067;DHT22;29763;50.904;5.530;2023-04-03T15:53:00;12.00;91.70
11067;DHT22;29763;50.904;5.530;2023-04-03T15:55:29;11.80;90.40
11067;DHT22;29763;50.904;5.530;2023-04-03T15:57:56;11.80;90.60
11067;DHT22;29763;50.904;5.530;2023-04-03T16:00:23;11.60;89.60
11067;DHT22;29763;50.904;5.530;2023-04-03T16:02:53;11.40;90.60
11067;DHT22;29763;50.904;5.530;2023-04-03T16:05:20;11.50;90.60
11067;DHT22;29763;50.904;5.530;2023-04-03T16:07:48;11.30;89.10
11067;DHT22;29763;50.904;5.530;2023-04-03T16:10:16;11.00;89.90
11067;DHT22;29763;50.904;5.530;2023-04-03T16:12:42;10.90;90.40
11067;DHT22;29763;50.904;5.530;2023-04-03T16:15:08;10.80;90.70
11067;DHT22;29763;50.904;5.530;2023-04-03T16:17:38;10.90;91.30
11067;DHT22;29763;50.904;5.530;2023-04-03T16:20:08;10.90;90.00
11067;DHT22;29763;50.904;5.530;2023-04-03T16:22:34;10.90;91.00
11067;DHT22;29763;50.904;5.530;2023-04-03T16:25:01;10.90;90.10
11067;DHT22;29763;50.904;5.530;2023-04-03T16:27:27;10.80;90.40
11067;DHT22;29763;50.904;5.530;2023-04-03T16:29:55;10.70;91.10
11067;DHT22;29763;50.904;5.530;2023-04-03T16:32:22;10.80;90.70
11067;DHT22;29763;50.904;5.530;2023-04-03T16:34:48;10.70;90.80
11067;DHT22;29763;50.904;5.530;2023-04-03T16:37:15;10.50;90.20
11067;DHT22;29763;50.904;5.530;2023-04-03T16:39:41;10.50;90.20
11067;DHT22;29763;50.904;5.530;2023-04-03T16:42:07;10.50;91.30
11067;DHT22;29763;50.904;5.530;2023-04-03T16:44:36;10.60;92.00
11067;DHT22;29763;50.904;5.530;2023-04-03T16:47:03;10.60;91.80
11067;DHT22;29763;50.904;5.530;2023-04-03T16:49:28;10.50;91.80
11067;DHT22;29763;50.904;5.530;2023-04-03T16:51:58;10.40;91.70
11067;DHT22;29763;50.904;5.530;2023-04-03T16:54:24;10.50;92.30
11067;DHT22;29763;50.904;5.530;2023-04-03T16:56:50;10.30;91.90
11067;DHT22;29763;50.904;5.530;2023-04-03T16:59:16;10.40;93.20
11067;DHT22;29763;50.904;5.530;2023-04-03T17:01:42;10.10;92.00
11067;DHT22;29763;50.904;5.530;2023-04-03T17:04:08;10.00;91.90
11067;DHT22;29763;50.904;5.530;2023-04-03T17:06:34;9.70;93.00
11067;DHT22;29763;50.904;5.530;2023-04-03T17:09:03;9.70;93.50
11067;DHT22;29763;50.904;5.530;2023-04-03T17:11:30;9.50;94.50
11067;DHT22;29763;50.904;5.530;2023-04-03T17:13:56;9.40;93.40
11067;DHT22;29763;50.904;5.530;2023-04-03T17:16:26;9.40;94.30
11067;DHT22;29763;50.904;5.530;2023-04-03T17:18:53;9.20;94.40
11067;DHT22;29763;50.904;5.530;2023-04-03T17:21:22;9.00;94.30
11067;DHT22;29763;50.904;5.530;2023-04-03T17:23:52;9.00;95.70
11067;DHT22;29763;50.904;5.530;2023-04-03T17:26:19;8.80;95.70
11067;DHT22;29763;50.904;5.530;2023-04-03T17:28:46;8.80;95.80
11067;DHT22;29763;50.904;5.530;2023-04-03T17:31:12;8.80;96.20
11067;DHT22;29763;50.904;5.530;2023-04-03T17:33:38;9.10;96.30